Time;durP1;ratioP1;P1;durP2;ratioP2;P2;SDS_P1;SDS_P2;PMS_P1;PMS_P2;Temp;Humidity;BMP_temperature;BMP_pressure;BME280_temperature;BME280_humidity;BME280_pressure;Samples;Min_cycle;Max_cycle;Signal;HPM_P1;HPM_P2
2021/11/20 00:01:23;;;;;;;15.60;9.27;;;;;;;10.08;62.78;102519.75;8008554;28;20017;-68
2021/11/20 00:05:18;;;;;;;14.13;8.93;;;;;;;10.09;62.78;102513.59;8006394;28;20124;-68
2021/11/20 00:09:12;;;;;;;13.23;9.52;;;;;;;10.08;62.77;102506.63;8010356;28;20017;-67
2021/11/20 00:13:07;;;;;;;13.30;9.43;;;;;;;10.08;62.84;102507.47;8009172;28;20713;-67
2021/11/20 00:17:01;;;;;;;12.77;9.27;;;;;;;10.07;62.72;102507.56;8007169;28;20529;-68
2021/11/20 00:20:55;;;;;;;18.35;10.82;;;;;;;10.07;62.64;102504.94;8002814;28;20028;-67
2021/11/20 00:25:12;;;;;;;14.73;10.15;;;;;;;10.06;62.78;102505.84;8007430;28;20028;-67
2021/11/20 00:29:18;;;;;;;14.88;9.52;;;;;;;10.06;62.74;102506.69;8006006;28;20039;-67
2021/11/20 00:33:10;;;;;;;14.68;10.13;;;;;;;10.06;62.67;102505.84;8007684;28;20033;-67
2021/11/20 00:37:01;;;;;;;16.55;10.52;;;;;;;10.05;62.72;102497.09;8006159;28;20170;-68
2021/11/20 00:40:59;;;;;;;14.77;9.02;;;;;;;10.05;62.73;102498.88;8006005;28;20110;-67
2021/11/20 00:44:50;;;;;;;14.75;9.30;;;;;;;10.04;62.60;102503.25;8005082;28;20028;-67
2021/11/20 00:48:42;;;;;;;17.83;10.32;;;;;;;10.05;62.68;102499.72;8006040;28;20037;-67
2021/11/20 00:52:33;;;;;;;12.38;8.80;;;;;;;10.05;62.52;102498.88;8004250;28;20109;-67
2021/11/20 00:56:26;;;;;;;15.65;10.98;;;;;;;10.04;62.53;102502.41;8004874;28;20032;-67
2021/11/20 01:00:20;;;;;;;15.98;10.55;;;;;;;10.06;62.67;102500.59;8006423;28;20027;-67
2021/11/20 01:04:10;;;;;;;15.73;10.20;;;;;;;10.03;62.72;102501.53;8006431;28;20071;-68
2021/11/20 01:08:03;;;;;;;15.95;10.38;;;;;;;9.97;62.57;102488.66;8004166;28;20029;-67
2021/11/20 01:12:02;;;;;;;15.30;10.38;;;;;;;10.03;62.65;102490.22;8004964;28;20490;-68
2021/11/20 01:15:58;;;;;;;14.73;9.85;;;;;;;10.03;62.53;102487.59;8004571;28;20033;-67
2021/11/20 01:19:50;;;;;;;15.35;10.38;;;;;;;10.03;62.69;102483.16;8003758;28;20402;-68
2021/11/20 01:23:48;;;;;;;15.23;10.05;;;;;;;10.02;62.58;102484.09;8001085;28;20110;-67
2021/11/20 01:27:39;;;;;;;13.73;9.80;;;;;;;10.02;62.56;102478.84;8002766;28;20044;-67
2021/11/20 01:31:50;;;;;;;13.80;10.32;;;;;;;10.01;62.38;102473.63;8003346;28;20041;-68
2021/11/20 01:35:41;;;;;;;14.80;9.57;;;;;;;10.00;62.47;102467.53;8003516;28;20037;-67
2021/11/20 01:39:38;;;;;;;15.52;10.38;;;;;;;10.00;62.39;102464.91;8004291;28;20119;-68
2021/11/20 01:43:47;;;;;;;16.85;10.75;;;;;;;9.94;62.38;102449.41;8003185;28;20099;-67
2021/11/20 01:47:48;;;;;;;17.02;11.23;;;;;;;9.97;62.51;102459.78;8004654;28;20064;-67
2021/11/20 01:51:43;;;;;;;14.30;10.13;;;;;;;9.98;62.46;102456.25;8001846;28;20029;-67
2021/11/20 01:55:43;;;;;;;12.80;9.57;;;;;;;9.96;62.51;102450.19;7997418;28;20033;-67
2021/11/20 02:00:07;;;;;;;15.73;9.98;;;;;;;9.97;62.46;102451.91;8003789;28;20036;-67
2021/11/20 02:04:16;;;;;;;15.60;10.25;;;;;;;9.94;62.38;102445.91;8002690;28;20041;-67
2021/11/20 02:08:22;;;;;;;17.27;10.30;;;;;;;9.93;62.49;102439.81;8002497;28;20043;-67
2021/11/20 02:12:19;;;;;;;17.50;10.95;;;;;;;9.93;62.54;102431.94;8003153;28;20106;-67
2021/11/20 02:16:19;;;;;;;19.15;10.43;;;;;;;9.89;62.43;102424.25;7998371;28;20036;-67
2021/11/20 02:20:26;;;;;;;;;;;;;;;9.81;62.58;102414.03;8001496;28;20029;-68
2021/11/20 02:24:17;;;;;;;16.77;9.50;;;;;;;9.88;62.41;102422.50;8002534;28;20400;-67
2021/11/20 02:28:36;;;;;;;10.55;7.25;;;;;;;9.89;62.49;102411.09;7984794;28;20071;-67
2021/11/20 02:32:35;;;;;;;17.63;10.20;;;;;;;9.88;62.54;102415.50;7982340;28;20041;-67
2021/11/20 02:36:33;;;;;;;15.48;10.15;;;;;;;9.88;62.49;102417.25;8002499;28;20061;-67
2021/11/20 02:40:26;;;;;;;19.15;10.05;;;;;;;9.88;62.46;102412.88;8004120;28;20029;-67
2021/11/20 02:44:19;;;;;;;17.52;11.10;;;;;;;9.88;62.50;102405.00;8002546;28;20041;-67
2021/11/20 02:48:11;;;;;;;14.82;10.15;;;;;;;9.88;62.20;102402.38;8002071;28;20052;-67
2021/11/20 02:52:09;;;;;;;16.58;10.98;;;;;;;9.80;62.30;102388.69;7999956;28;20033;-67
2021/11/20 02:56:02;;;;;;;17.10;11.02;;;;;;;9.88;62.52;102404.16;7986214;28;20437;-67
2021/11/20 02:59:57;;;;;;;15.73;10.23;;;;;;;9.87;62.42;102402.44;8002736;28;20032;-67
2021/11/20 03:03:50;;;;;;;18.42;11.40;;;;;;;9.86;62.47;102396.34;8002108;28;20032;-67
2021/11/20 03:07:41;;;;;;;15.65;10.30;;;;;;;9.85;62.44;102399.03;8001223;28;20041;-67
2021/11/20 03:11:33;;;;;;;16.45;10.63;;;;;;;9.84;62.50;102390.28;7987000;28;20033;-67
2021/11/20 03:15:24;;;;;;;17.35;10.40;;;;;;;9.83;62.45;102385.94;8002096;28;20076;-67
2021/11/20 03:19:15;;;;;;;16.23;10.30;;;;;;;9.84;62.51;102386.81;8002027;28;20033;-67
2021/11/20 03:23:14;;;;;;;18.90;11.35;;;;;;;9.84;62.40;102389.44;7998510;28;20033;-67
2021/11/20 03:27:05;;;;;;;18.33;10.65;;;;;;;9.83;62.66;102391.19;8007194;28;20033;-67
2021/11/20 03:30:58;;;;;;;17.17;10.57;;;;;;;9.82;62.31;102381.63;8008166;28;20040;-67
2021/11/20 03:34:49;;;;;;;17.45;10.90;;;;;;;9.82;62.25;102380.78;8007309;28;20051;-67
2021/11/20 03:38:43;;;;;;;15.38;9.95;;;;;;;9.82;62.52;102386.03;7987508;28;20162;-67
2021/11/20 03:42:36;;;;;;;18.75;11.88;;;;;;;9.81;62.60;102387.78;8007227;28;20025;-67
2021/11/20 03:46:27;;;;;;;17.83;11.18;;;;;;;9.79;62.36;102381.72;8007543;28;20065;-67
2021/11/20 03:50:18;;;;;;;15.82;10.18;;;;;;;9.79;62.27;102373.84;8007088;28;20036;-67
2021/11/20 03:54:09;;;;;;;19.73;11.18;;;;;;;9.79;62.39;102364.22;8008129;28;20056;-67
2021/11/20 03:58:00;;;;;;;17.60;10.52;;;;;;;9.78;62.37;102372.19;8007227;28;20056;-67
2021/11/20 04:01:51;;;;;;;17.27;11.02;;;;;;;9.77;62.38;102362.59;8007245;28;20404;-67
2021/11/20 04:05:45;;;;;;;14.35;9.50;;;;;;;9.76;62.71;102350.38;8006693;28;20033;-67
2021/11/20 04:09:36;;;;;;;17.35;10.82;;;;;;;9.75;62.42;102362.63;8006392;28;20436;-67
2021/11/20 04:13:37;;;;;;;18.20;10.27;;;;;;;9.74;62.38;102350.41;8006880;28;20041;-67
2021/11/20 04:17:28;;;;;;;16.23;10.50;;;;;;;9.74;62.53;102360.91;8007877;28;20045;-67
2021/11/20 04:21:19;;;;;;;16.67;10.13;;;;;;;9.72;62.38;102360.13;8006082;28;20033;-66
2021/11/20 04:25:12;;;;;;;16.92;11.38;;;;;;;9.72;62.29;102360.13;8003881;28;20094;-66
2021/11/20 04:29:09;;;;;;;15.82;10.45;;;;;;;9.72;62.30;102362.75;8006744;28;20155;-67
2021/11/20 04:33:00;;;;;;;16.15;10.30;;;;;;;9.73;62.46;102366.25;8005777;28;20459;-67
2021/11/20 04:36:51;;;;;;;15.40;9.70;;;;;;;9.68;62.41;102353.28;8005673;28;20681;-67
2021/11/20 04:40:43;;;;;;;13.55;9.25;;;;;;;9.62;62.20;102343.03;8006022;28;20059;-67
2021/11/20 04:44:35;;;;;;;16.33;9.27;;;;;;;9.71;62.39;102349.69;8005827;28;20043;-67
2021/11/20 04:48:26;;;;;;;15.80;9.90;;;;;;;9.69;62.29;102344.53;8007025;28;20037;-67
2021/11/20 04:52:26;;;;;;;16.58;9.63;;;;;;;9.70;62.40;102343.56;8002726;28;20044;-67
2021/11/20 04:56:20;;;;;;;14.35;9.80;;;;;;;9.63;62.32;102329.00;8005343;28;20040;-67
2021/11/20 05:00:19;;;;;;;15.63;9.35;;;;;;;9.69;62.28;102330.53;8005560;28;20024;-67
2021/11/20 05:04:15;;;;;;;15.80;9.95;;;;;;;9.69;62.46;102333.16;8003825;28;20064;-67
2021/11/20 05:08:06;;;;;;;15.45;9.93;;;;;;;9.69;62.48;102336.66;8004843;28;20071;-67
2021/11/20 05:11:56;;;;;;;16.40;10.13;;;;;;;9.67;62.36;102330.59;8005564;28;20071;-67
2021/11/20 05:15:52;;;;;;;17.52;10.48;;;;;;;9.67;62.40;102327.97;8004632;28;20052;-68
2021/11/20 05:19:43;;;;;;;14.93;9.70;;;;;;;9.65;62.53;102316.69;8005011;28;20121;-67
2021/11/20 05:23:36;;;;;;;17.90;10.30;;;;;;;9.67;62.37;102322.72;8002037;28;20599;-67
2021/11/20 05:27:27;;;;;;;14.23;9.05;;;;;;;9.65;62.13;102321.09;8004677;28;20025;-67
2021/11/20 05:31:19;;;;;;;18.08;10.85;;;;;;;9.65;62.41;102326.31;7987021;28;20734;-67
2021/11/20 05:35:11;;;;;;;17.92;10.55;;;;;;;9.63;62.28;102315.03;8005609;28;20072;-67
2021/11/20 05:39:05;;;;;;;17.25;10.98;;;;;;;9.64;62.43;102314.97;8003726;28;20051;-67
2021/11/20 05:42:59;;;;;;;17.05;10.40;;;;;;;9.63;62.24;102315.88;8004059;28;20033;-67
2021/11/20 05:46:58;;;;;;;14.70;9.77;;;;;;;9.61;62.24;102314.25;8002812;28;20056;-67
2021/11/20 05:50:50;;;;;;;14.05;9.32;;;;;;;9.62;62.19;102315.94;8000775;28;20036;-67
2021/11/20 05:54:41;;;;;;;16.98;9.50;;;;;;;9.57;62.42;102300.41;8002629;28;20029;-67
2021/11/20 05:58:37;;;;;;;16.52;9.65;;;;;;;9.60;62.24;102304.66;8004406;28;20798;-67
2021/11/20 06:02:27;;;;;;;14.27;8.63;;;;;;;9.59;62.29;102290.69;8003233;28;20541;-66
2021/11/20 06:06:22;;;;;;;13.73;8.88;;;;;;;9.55;62.33;102283.00;8003552;28;20039;-66
2021/11/20 06:10:13;;;;;;;14.63;9.73;;;;;;;9.54;62.34;102281.28;8002901;28;20723;-66
2021/11/20 06:14:07;;;;;;;17.00;9.95;;;;;;;9.60;62.23;102288.91;8003042;28;20044;-66
2021/11/20 06:18:01;;;;;;;15.30;9.70;;;;;;;9.58;62.31;102295.97;8002768;28;20032;-66
2021/11/20 06:21:52;;;;;;;16.50;10.65;;;;;;;9.57;62.34;102287.28;8000829;28;20600;-66
2021/11/20 06:25:42;;;;;;;20.45;11.18;;;;;;;9.57;62.10;102281.16;8002009;28;20040;-66
2021/11/20 06:29:33;;;;;;;17.88;10.32;;;;;;;9.58;62.43;102283.72;8000631;28;20040;-67
2021/11/20 06:33:33;;;;;;;18.65;11.00;;;;;;;9.56;62.38;102280.31;7999470;28;20497;-66
2021/11/20 06:37:34;;;;;;;17.05;10.20;;;;;;;9.56;62.20;102277.69;7995480;28;20037;-66
2021/11/20 06:41:29;;;;;;;16.50;9.98;;;;;;;9.56;62.11;102292.56;8002854;28;20029;-66
2021/11/20 06:45:25;;;;;;;17.75;10.90;;;;;;;9.56;62.32;102288.19;8002508;28;20033;-66
2021/11/20 06:49:17;;;;;;;16.50;10.38;;;;;;;9.55;62.25;102290.84;8001241;28;20025;-66
2021/11/20 06:53:16;;;;;;;15.32;10.05;;;;;;;9.55;62.34;102283.84;7995128;28;20044;-66
2021/11/20 06:57:47;;;;;;;18.33;9.80;;;;;;;9.55;62.31;102285.59;8001553;28;20032;-66
2021/11/20 07:01:57;;;;;;;17.17;10.43;;;;;;;9.52;62.38;102281.34;7987951;28;20069;-66
2021/11/20 07:05:59;;;;;;;18.30;10.43;;;;;;;9.53;62.22;102295.31;8008760;28;20032;-65
2021/11/20 07:09:50;;;;;;;14.23;9.02;;;;;;;9.53;62.09;102295.31;8007046;28;20056;-65
2021/11/20 07:13:41;;;;;;;16.35;10.60;;;;;;;9.53;62.19;102297.94;8008371;28;20033;-65
2021/11/20 07:17:31;;;;;;;17.75;10.00;;;;;;;9.52;62.15;102298.84;8009013;28;20048;-65
2021/11/20 07:21:57;;;;;;;16.20;9.95;;;;;;;9.46;62.24;102291.22;7953096;28;20055;-65
2021/11/20 07:26:09;;;;;;;17.48;9.70;;;;;;;9.45;62.33;102290.38;8006690;28;20024;-65
2021/11/20 07:30:00;;;;;;;15.60;9.93;;;;;;;9.52;62.36;102294.47;8005830;28;20685;-65
2021/11/20 07:34:04;;;;;;;16.13;9.93;;;;;;;9.53;62.24;102290.94;8007311;28;20029;-65
2021/11/20 07:37:55;;;;;;;16.42;9.63;;;;;;;9.51;62.35;102277.00;8007861;28;20075;-65
2021/11/20 07:41:47;;;;;;;17.23;10.10;;;;;;;9.54;62.25;102276.03;8005090;28;20037;-65
2021/11/20 07:45:42;;;;;;;16.38;10.05;;;;;;;9.55;62.14;102275.97;8007638;28;20108;-65
2021/11/20 07:49:34;;;;;;;20.52;11.20;;;;;;;9.55;62.10;102269.88;8007471;28;20041;-65
2021/11/20 07:53:24;;;;;;;18.08;10.98;;;;;;;9.57;62.18;102273.31;8005528;28;20032;-66
2021/11/20 07:57:16;;;;;;;15.65;10.40;;;;;;;9.57;62.16;102273.31;8008787;28;20033;-66
2021/11/20 08:01:08;;;;;;;20.52;10.98;;;;;;;9.58;62.25;102267.13;8008068;28;20266;-66
2021/11/20 08:05:00;;;;;;;18.15;10.32;;;;;;;9.57;62.34;102261.03;8006076;28;20033;-66
2021/11/20 08:09:04;;;;;;;18.30;10.98;;;;;;;9.55;62.15;102262.84;8005786;28;20116;-66
2021/11/20 08:13:30;;;;;;;17.07;10.47;;;;;;;9.57;62.33;102260.19;8002960;28;20530;-66
2021/11/20 08:17:24;;;;;;;17.63;10.43;;;;;;;9.59;62.11;102253.09;8006735;28;20676;-67
2021/11/20 08:21:18;;;;;;;20.05;11.23;;;;;;;9.59;62.13;102248.69;8001725;28;20044;-66
2021/11/20 08:25:22;;;;;;;15.48;9.40;;;;;;;9.60;62.39;102245.16;8005445;28;20060;-67
2021/11/20 08:29:16;;;;;;;19.23;9.90;;;;;;;9.61;62.39;102246.03;8006329;28;20032;-66
2021/11/20 08:33:07;;;;;;;14.90;8.73;;;;;;;9.63;62.40;102238.94;8005603;28;20480;-66
2021/11/20 08:37:03;;;;;;;14.20;9.15;;;;;;;9.62;62.22;102224.97;8004707;28;20119;-67
2021/11/20 08:41:08;;;;;;;15.80;9.65;;;;;;;9.65;62.54;102237.97;7996802;28;20100;-66
2021/11/20 08:45:05;;;;;;;15.00;9.05;;;;;;;9.67;62.41;102240.50;8005382;28;20040;-67
2021/11/20 08:49:06;;;;;;;15.52;9.65;;;;;;;9.66;62.40;102229.16;8000737;28;20055;-66
2021/11/20 08:52:57;;;;;;;20.30;10.98;;;;;;;9.71;62.26;102231.59;8003340;28;20116;-66
2021/11/20 08:56:52;;;;;;;18.63;10.57;;;;;;;9.72;62.18;102230.69;8003529;28;20036;-66
2021/11/20 09:00:52;;;;;;;17.48;10.38;;;;;;;9.74;62.27;102221.00;8005644;28;20040;-66
2021/11/20 09:04:58;;;;;;;19.42;10.30;;;;;;;9.74;62.46;102224.44;8002329;28;20433;-66
2021/11/20 09:09:19;;;;;;;16.27;9.48;;;;;;;9.73;62.47;102211.41;8005215;28;20056;-66
2021/11/20 09:13:18;;;;;;;13.00;7.63;;;;;;;9.76;62.28;102208.66;8001976;28;20279;-66
2021/11/20 09:17:14;;;;;;;18.27;9.85;;;;;;;9.79;62.20;102209.38;8002773;28;20044;-67
2021/11/20 09:21:07;;;;;;;14.70;8.77;;;;;;;9.81;62.25;102209.31;8002612;28;20097;-67
2021/11/20 09:25:16;;;;;;;16.38;8.57;;;;;;;9.83;62.26;102204.84;8003380;28;20029;-66
2021/11/20 09:29:14;;;;;;;11.95;8.13;;;;;;;9.86;62.20;102199.50;8004680;28;20041;-66
2021/11/20 09:33:06;;;;;;;12.90;7.55;;;;;;;9.88;62.33;102205.50;8005045;28;20017;-66
2021/11/20 09:37:00;;;;;;;14.52;8.43;;;;;;;9.89;62.14;102204.59;8003977;28;20025;-67
2021/11/20 09:41:11;;;;;;;15.75;8.80;;;;;;;9.89;62.38;102203.75;8000170;28;20529;-67
2021/11/20 09:45:09;;;;;;;13.40;7.97;;;;;;;9.89;62.18;102196.72;7998286;28;20552;-65
2021/11/20 09:49:17;;;;;;;10.85;7.53;;;;;;;9.92;62.34;102196.59;8003079;28;20056;-65
2021/11/20 09:53:09;;;;;;;15.35;7.78;;;;;;;9.93;62.15;102200.94;8001149;28;20050;-65
2021/11/20 09:57:12;;;;;;;11.88;7.03;;;;;;;9.91;62.22;102202.75;8003392;28;20047;-65
2021/11/20 10:01:27;;;;;;;13.60;7.85;;;;;;;9.90;62.16;102198.44;8004925;28;20043;-65
2021/11/20 10:05:30;;;;;;;11.75;7.15;;;;;;;9.92;62.07;102193.97;8003079;28;20032;-65
2021/11/20 10:09:20;;;;;;;12.20;6.78;;;;;;;9.94;62.18;102196.53;8005018;28;20028;-66
2021/11/20 10:13:19;;;;;;;14.88;7.63;;;;;;;9.95;62.24;102179.88;8003928;28;20090;-66
2021/11/20 10:17:18;;;;;;;12.23;6.68;;;;;;;9.98;62.06;102177.97;8004447;28;20033;-66
2021/11/20 10:21:08;;;;;;;9.55;6.82;;;;;;;10.00;61.84;102181.38;8004804;28;20025;-65
2021/11/20 10:25:27;;;;;;;11.82;6.63;;;;;;;10.03;62.07;102173.34;8004485;28;20402;-65
2021/11/20 10:29:27;;;;;;;11.60;7.45;;;;;;;10.04;62.16;102166.34;8003407;28;20120;-66
2021/11/20 10:33:24;;;;;;;10.55;7.13;;;;;;;10.00;62.01;102142.00;8003769;28;20033;-66
2021/11/20 10:37:31;;;;;;;12.43;6.47;;;;;;;10.05;61.99;102153.16;8001386;28;20696;-66
2021/11/20 10:41:28;;;;;;;9.88;6.68;;;;;;;10.06;62.06;102148.75;8001145;28;20025;-66
2021/11/20 10:45:54;;;;;;;8.05;5.53;;;;;;;10.06;61.93;102135.63;8003866;28;20029;-66
2021/11/20 10:50:15;;;;;;;8.90;5.75;;;;;;;10.06;61.90;102135.63;7989619;28;20124;-66
2021/11/20 10:54:36;;;;;;;11.07;6.88;;;;;;;10.07;61.93;102127.66;8002153;28;20029;-66
2021/11/20 10:58:44;;;;;;;7.53;5.32;;;;;;;10.08;61.94;102120.66;8002373;28;20513;-66
2021/11/20 11:02:46;;;;;;;8.38;5.57;;;;;;;10.07;61.90;102114.53;8003375;28;20375;-64
2021/11/20 11:07:05;;;;;;;7.13;5.28;;;;;;;10.09;61.85;102107.47;8004199;28;20040;-66
2021/11/20 11:11:09;;;;;;;12.75;5.57;;;;;;;10.10;61.93;102103.91;8002271;28;20483;-66
2021/11/20 11:15:03;;;;;;;8.82;5.78;;;;;;;10.12;61.82;102107.31;8003553;28;20046;-66
2021/11/20 11:19:02;;;;;;;9.93;5.85;;;;;;;10.14;61.66;102107.25;8003372;28;20044;-66
2021/11/20 11:23:05;;;;;;;10.25;7.22;;;;;;;10.09;61.76;102091.72;7997393;28;20037;-66
2021/11/20 11:27:16;;;;;;;9.95;6.30;;;;;;;10.14;61.56;102088.88;8000796;28;20079;-66
2021/11/20 11:31:09;;;;;;;7.70;5.78;;;;;;;10.13;61.58;102082.78;8002336;28;20033;-66
2021/11/20 11:35:26;;;;;;;9.10;6.43;;;;;;;10.13;61.62;102074.91;8003332;28;20037;-65
2021/11/20 11:39:34;;;;;;;9.35;6.65;;;;;;;10.10;61.55;102061.91;8001465;28;20029;-67
2021/11/20 11:43:43;;;;;;;;;;;;;;;9.99;61.98;102058.06;8003860;28;20044;-66
2021/11/20 11:48:10;;;;;;;7.68;5.85;;;;;;;10.03;61.57;102054.38;8005017;28;20258;-66
2021/11/20 11:52:16;;;;;;;9.60;6.32;;;;;;;10.01;61.60;102050.97;8003574;28;20043;-65
2021/11/20 11:56:10;;;;;;;7.45;5.65;;;;;;;10.01;61.58;102038.69;8006259;28;20625;-66
2021/11/20 12:00:37;;;;;;;6.82;5.00;;;;;;;10.00;61.38;102042.22;8008543;28;20040;-66
2021/11/20 12:04:40;;;;;;;7.55;5.78;;;;;;;10.02;61.22;102031.66;8004529;28;20055;-66
2021/11/20 12:08:33;;;;;;;8.60;5.60;;;;;;;10.02;61.21;102016.78;8007670;28;20095;-65
2021/11/20 12:12:33;;;;;;;8.07;5.35;;;;;;;10.02;61.08;102014.16;8007287;28;20122;-66
2021/11/20 12:16:47;;;;;;;6.78;4.57;;;;;;;10.02;61.13;102010.66;8007966;28;20041;-66
2021/11/20 12:20:54;;;;;;;7.30;5.53;;;;;;;10.02;60.96;102003.66;8002879;28;20082;-66
2021/11/20 12:24:51;;;;;;;8.68;5.57;;;;;;;10.02;61.05;101990.53;8008019;28;20037;-67
2021/11/20 12:29:04;;;;;;;6.63;4.82;;;;;;;10.00;61.02;101987.09;8008169;28;20503;-66
2021/11/20 12:33:09;;;;;;;8.95;4.70;;;;;;;9.99;61.04;101977.50;7988863;28;20037;-66
2021/11/20 12:37:24;;;;;;;7.45;5.35;;;;;;;9.99;60.87;101969.63;8007916;28;20033;-64
2021/11/20 12:41:52;;;;;;;5.40;4.28;;;;;;;9.97;60.89;101953.13;7999004;28;20107;-66
2021/11/20 12:46:09;;;;;;;6.72;5.00;;;;;;;9.94;60.89;101955.91;8001943;28;20037;-65
2021/11/20 12:50:03;;;;;;;7.95;5.50;;;;;;;9.93;60.78;101938.44;8004425;28;20506;-66
2021/11/20 12:53:59;;;;;;;6.88;5.30;;;;;;;9.93;60.62;101935.81;8001030;28;20140;-66
2021/11/20 12:58:06;;;;;;;6.47;5.03;;;;;;;9.93;60.60;101933.19;8006905;28;20547;-66
2021/11/20 13:02:08;;;;;;;6.80;5.18;;;;;;;9.94;60.60;101920.91;8005678;28;20059;-66
2021/11/20 13:06:02;;;;;;;7.30;5.55;;;;;;;9.91;60.42;101908.78;8005983;28;20234;-67
2021/11/20 13:10:29;;;;;;;8.93;6.03;;;;;;;9.89;60.65;101905.38;8005730;28;20046;-66
2021/11/20 13:14:41;;;;;;;7.30;5.43;;;;;;;9.91;60.66;101906.16;8006415;28;20033;-66
2021/11/20 13:18:58;;;;;;;10.02;5.32;;;;;;;9.93;60.31;101895.59;8006376;28;20033;-66
2021/11/20 13:23:13;;;;;;;8.27;5.10;;;;;;;9.93;60.42;101879.84;7998631;28;20025;-67
2021/11/20 13:27:06;;;;;;;7.30;5.55;;;;;;;9.94;60.31;101878.94;8003677;28;20033;-66
2021/11/20 13:30:59;;;;;;;6.03;4.55;;;;;;;9.95;60.28;101873.59;8003914;28;20103;-65
2021/11/20 13:34:52;;;;;;;6.93;5.63;;;;;;;9.92;60.15;101863.25;8005561;28;20043;-65
2021/11/20 13:38:43;;;;;;;6.68;5.10;;;;;;;9.91;60.33;101868.59;8005236;28;20060;-66
2021/11/20 13:42:35;;;;;;;6.82;5.30;;;;;;;9.90;60.21;101866.88;8003117;28;20035;-64
2021/11/20 13:46:26;;;;;;;7.20;5.80;;;;;;;9.87;60.14;101859.13;8005657;28;20037;-65
2021/11/20 13:50:17;;;;;;;8.70;5.68;;;;;;;9.85;60.07;101850.50;8003621;28;20036;-63
2021/11/20 13:54:11;;;;;;;7.05;4.97;;;;;;;9.87;60.15;101846.00;8003820;28;20041;-64
2021/11/20 13:58:01;;;;;;;7.47;5.53;;;;;;;9.80;59.93;101840.19;8004664;28;20055;-66
2021/11/20 14:01:56;;;;;;;7.63;5.60;;;;;;;9.83;59.99;101834.81;8004299;28;20032;-66
2021/11/20 14:05:46;;;;;;;7.70;5.18;;;;;;;9.86;60.01;101837.31;8003883;28;20118;-66
2021/11/20 14:09:47;;;;;;;7.45;5.30;;;;;;;9.82;60.00;101825.25;8003458;28;20037;-66
2021/11/20 14:13:38;;;;;;;8.02;5.53;;;;;;;9.85;59.92;101821.63;8003624;28;20069;-66
2021/11/20 14:17:34;;;;;;;7.72;5.45;;;;;;;9.85;59.72;101808.50;8004885;28;20041;-67
2021/11/20 14:21:28;;;;;;;7.45;5.80;;;;;;;9.85;59.79;101805.88;8001160;28;20032;-66
2021/11/20 14:25:19;;;;;;;9.30;5.70;;;;;;;9.84;59.73;101791.03;8002406;28;20097;-66
2021/11/20 14:29:10;;;;;;;7.38;5.05;;;;;;;9.78;59.88;101781.72;8000975;28;20045;-66
2021/11/20 14:33:10;;;;;;;6.60;5.32;;;;;;;9.77;59.64;101780.84;7995487;28;20040;-69
2021/11/20 14:37:11;;;;;;;8.45;5.45;;;;;;;9.80;59.60;101790.34;7980447;28;20041;-70
2021/11/20 14:41:05;;;;;;;6.85;4.57;;;;;;;9.80;59.58;101777.22;8000994;28;20107;-68
2021/11/20 14:45:07;;;;;;;9.10;5.72;;;;;;;9.78;59.44;101772.03;7999794;28;20429;-70
2021/11/20 14:49:11;;;;;;;8.55;5.50;;;;;;;9.74;59.34;101762.63;8000731;28;20120;-68
2021/11/20 14:53:07;;;;;;;7.65;5.35;;;;;;;9.71;59.39;101741.78;7989607;28;20041;-69
2021/11/20 14:57:01;;;;;;;9.00;5.75;;;;;;;9.69;59.45;101738.41;8001985;28;20081;-69
2021/11/20 15:00:55;;;;;;;7.68;5.20;;;;;;;9.68;59.41;101741.09;7999056;28;20570;-69
2021/11/20 15:04:46;;;;;;;8.05;5.28;;;;;;;9.65;59.46;101731.59;7998517;28;20045;-66
2021/11/20 15:08:37;;;;;;;8.23;5.53;;;;;;;9.64;59.38;101726.41;7998530;28;20155;-69
2021/11/20 15:12:28;;;;;;;9.70;5.65;;;;;;;9.54;59.40;101712.88;7997875;28;20033;-69
2021/11/20 15:16:19;;;;;;;8.95;5.63;;;;;;;9.57;59.32;101706.66;8002209;28;20036;-68
2021/11/20 15:20:11;;;;;;;8.25;6.20;;;;;;;9.58;59.45;101706.56;8005071;28;20145;-68
2021/11/20 15:24:02;;;;;;;8.95;6.50;;;;;;;9.54;59.41;101701.53;8007603;28;20397;-69
2021/11/20 15:27:53;;;;;;;9.40;5.32;;;;;;;9.53;59.18;101699.88;8006369;28;20745;-66
2021/11/20 15:31:44;;;;;;;9.98;6.30;;;;;;;9.55;59.32;101700.63;8008922;28;20037;-67
2021/11/20 15:35:34;;;;;;;8.85;6.40;;;;;;;9.51;59.19;101693.84;8007891;28;20044;-67
2021/11/20 15:39:25;;;;;;;10.30;6.30;;;;;;;9.48;59.19;101681.72;8009023;28;20021;-69
2021/11/20 15:43:16;;;;;;;8.48;5.82;;;;;;;9.43;59.10;101681.09;8004811;28;20094;-67
2021/11/20 15:47:07;;;;;;;10.50;6.30;;;;;;;9.44;59.12;101687.19;8009163;28;20031;-69
2021/11/20 15:50:57;;;;;;;8.85;6.00;;;;;;;9.36;59.00;101668.38;8003141;28;20037;-72
2021/11/20 15:54:48;;;;;;;9.38;5.85;;;;;;;9.40;58.90;101662.03;8007675;28;20111;-69
2021/11/20 15:58:38;;;;;;;12.48;6.25;;;;;;;9.38;59.02;101656.84;8008126;28;20033;-71
2021/11/20 16:02:29;;;;;;;10.65;6.35;;;;;;;9.38;59.08;101654.25;8008488;28;20033;-68
2021/11/20 16:06:19;;;;;;;9.00;6.53;;;;;;;9.35;58.99;101641.28;8008406;28;20029;-71
2021/11/20 16:10:11;;;;;;;7.40;5.38;;;;;;;9.36;58.92;101642.13;8006932;28;20029;-69
2021/11/20 16:14:01;;;;;;;10.18;6.75;;;;;;;9.30;59.07;101620.50;8003424;28;20120;-70
2021/11/20 16:17:52;;;;;;;9.77;6.30;;;;;;;9.32;59.08;101620.44;8001757;28;20078;-66
2021/11/20 16:21:44;;;;;;;10.90;6.53;;;;;;;9.32;58.96;101615.19;8002007;28;20029;-66
2021/11/20 16:25:34;;;;;;;10.38;6.72;;;;;;;9.32;58.98;101618.66;8003926;28;20186;-66
2021/11/20 16:29:25;;;;;;;10.57;6.25;;;;;;;9.32;59.11;101609.94;8006665;28;20551;-66
2021/11/20 16:33:16;;;;;;;10.65;6.85;;;;;;;9.30;58.91;101611.78;8001056;28;20517;-69
2021/11/20 16:37:06;;;;;;;10.20;6.38;;;;;;;9.28;58.64;101613.63;8004879;28;20090;-70
2021/11/20 16:40:57;;;;;;;8.52;6.18;;;;;;;9.26;58.89;101610.22;8007736;28;20547;-69
2021/11/20 16:44:47;;;;;;;8.30;6.07;;;;;;;9.22;59.05;101604.28;8007005;28;20568;-66
2021/11/20 16:48:39;;;;;;;8.98;5.78;;;;;;;9.22;59.10;101598.19;8007428;28;20050;-69
2021/11/20 16:52:33;;;;;;;12.23;7.53;;;;;;;9.21;58.64;101601.72;8003455;28;20029;-68
2021/11/20 16:56:23;;;;;;;11.13;7.20;;;;;;;9.18;59.12;101597.50;8005938;28;20055;-70
2021/11/20 17:00:14;;;;;;;11.98;6.85;;;;;;;9.15;58.91;101583.69;8001215;28;20032;-71
2021/11/20 17:04:06;;;;;;;10.77;7.70;;;;;;;9.15;58.66;101581.94;8006999;28;20064;-70
2021/11/20 17:07:56;;;;;;;12.02;7.63;;;;;;;9.13;58.86;101582.91;8004288;28;20094;-67
2021/11/20 17:11:49;;;;;;;11.15;7.50;;;;;;;9.14;58.91;101576.75;8005237;28;20025;-70
2021/11/20 17:15:40;;;;;;;12.65;7.47;;;;;;;9.14;58.96;101574.97;8005840;28;20033;-70
2021/11/20 17:19:31;;;;;;;13.43;9.05;;;;;;;9.13;58.89;101569.81;8005519;28;20041;-70
2021/11/20 17:23:22;;;;;;;14.90;8.05;;;;;;;9.08;58.87;101563.97;8002136;28;20052;-70
2021/11/20 17:27:12;;;;;;;14.48;8.27;;;;;;;9.08;58.75;101558.72;8006147;28;20493;-70
2021/11/20 17:31:03;;;;;;;9.10;5.82;;;;;;;9.08;58.88;101553.47;8005864;28;20037;-69
2021/11/20 17:34:54;;;;;;;9.57;5.82;;;;;;;9.05;58.84;101549.22;8003343;28;20509;-69
2021/11/20 17:38:45;;;;;;;9.18;6.03;;;;;;;9.06;58.67;101544.81;8004433;28;20033;-66
2021/11/20 17:42:35;;;;;;;12.93;7.00;;;;;;;9.04;58.69;101539.66;8001401;28;20028;-70
2021/11/20 17:46:26;;;;;;;8.75;5.57;;;;;;;9.03;58.79;101534.50;8004972;28;20028;-66
2021/11/20 17:50:17;;;;;;;9.15;6.07;;;;;;;9.02;58.78;101531.03;8002981;28;20045;-71
2021/11/20 17:54:07;;;;;;;9.13;6.30;;;;;;;9.01;58.82;101531.09;8005292;28;20041;-70
2021/11/20 17:57:58;;;;;;;10.98;7.07;;;;;;;8.99;58.79;101518.09;8005578;28;20402;-70
2021/11/20 18:01:49;;;;;;;8.27;6.20;;;;;;;8.97;58.65;101517.28;8005319;28;20140;-70
2021/11/20 18:05:41;;;;;;;9.40;6.68;;;;;;;8.96;58.67;101526.06;8005230;28;20568;-70
2021/11/20 18:09:32;;;;;;;10.27;6.13;;;;;;;8.96;58.60;101527.84;8004393;28;20063;-70
2021/11/20 18:13:23;;;;;;;10.00;6.88;;;;;;;8.89;58.86;101511.59;8003403;28;20021;-69
2021/11/20 18:17:16;;;;;;;9.40;6.10;;;;;;;8.91;58.65;101517.63;8003226;28;20045;-70
2021/11/20 18:21:09;;;;;;;9.07;5.65;;;;;;;8.90;58.79;101523.78;8002575;28;20035;-70